Time;durP1;ratioP1;P1;durP2;ratioP2;P2;SDS_P1;SDS_P2;PMS_P1;PMS_P2;Temp;Humidity;BMP_temperature;BMP_pressure;BME280_temperature;BME280_humidity;BME280_pressure;Samples;Min_cycle;Max_cycle;Signal;HPM_P1;HPM_P2
2021/09/17 00:00:29;;;;;;;24.88;13.90;;;17.10;54.00;;;;;;5009246;28;20053;-63
2021/09/17 00:02:58;;;;;;;19.35;12.73;;;17.10;53.90;;;;;;5014199;28;20018;-61
2021/09/17 00:05:24;;;;;;;23.73;14.73;;;17.10;54.00;;;;;;5015627;28;20026;-63
2021/09/17 00:07:50;;;;;;;18.20;12.15;;;17.10;53.90;;;;;;5014614;28;20029;-63
2021/09/17 00:10:17;;;;;;;22.48;12.30;;;17.10;54.10;;;;;;5014152;28;20026;-63
2021/09/17 00:12:43;;;;;;;18.67;11.00;;;17.10;54.10;;;;;;5014298;28;20104;-63
2021/09/17 00:15:10;;;;;;;16.38;10.77;;;17.10;53.90;;;;;;5014587;28;20490;-63
2021/09/17 00:17:36;;;;;;;15.07;10.15;;;17.10;54.10;;;;;;5014494;28;20054;-63
2021/09/17 00:20:03;;;;;;;14.90;9.57;;;17.10;54.10;;;;;;5014268;28;20026;-63
2021/09/17 00:22:29;;;;;;;18.70;9.77;;;17.10;54.00;;;;;;5014079;28;20469;-63
2021/09/17 00:24:55;;;;;;;18.02;10.75;;;17.10;54.10;;;;;;5014074;28;20054;-63
2021/09/17 00:27:20;;;;;;;17.25;10.13;;;17.10;54.10;;;;;;5014004;28;20026;-63
2021/09/17 00:29:46;;;;;;;15.10;9.43;;;17.00;54.10;;;;;;5013789;28;20026;-63
2021/09/17 00:32:12;;;;;;;17.52;9.98;;;17.00;54.10;;;;;;5002946;28;20387;-63
2021/09/17 00:34:37;;;;;;;20.50;10.95;;;17.00;54.00;;;;;;5015379;28;20026;-63
2021/09/17 00:37:03;;;;;;;17.98;11.10;;;17.00;54.10;;;;;;5017825;28;20040;-63
2021/09/17 00:39:29;;;;;;;19.20;11.20;;;17.00;54.20;;;;;;5017697;28;20080;-63
2021/09/17 00:41:57;;;;;;;18.35;10.82;;;16.90;54.20;;;;;;5017149;28;20033;-63
2021/09/17 00:44:24;;;;;;;20.33;10.75;;;16.90;54.30;;;;;;5017297;28;20490;-63
2021/09/17 00:46:51;;;;;;;21.50;11.85;;;16.90;54.20;;;;;;5016519;28;20032;-63
2021/09/17 00:49:17;;;;;;;17.80;11.55;;;16.90;54.20;;;;;;5017529;28;20497;-63
2021/09/17 00:51:43;;;;;;;21.17;12.60;;;16.90;54.30;;;;;;5017685;28;20512;-63
2021/09/17 00:54:09;;;;;;;24.48;13.77;;;16.80;54.40;;;;;;5017634;28;20101;-63
2021/09/17 00:56:34;;;;;;;20.70;12.35;;;16.80;54.40;;;;;;5017387;28;20022;-63
2021/09/17 00:59:00;;;;;;;19.60;12.07;;;16.80;54.40;;;;;;5015897;28;20022;-63
2021/09/17 01:01:26;;;;;;;21.35;12.02;;;16.80;54.60;;;;;;5023495;28;20362;-63
2021/09/17 01:03:52;;;;;;;28.45;13.85;;;16.80;54.50;;;;;;5025629;28;20026;-63
2021/09/17 01:06:17;;;;;;;31.08;16.33;;;16.80;54.50;;;;;;5017261;28;20030;-63
2021/09/17 01:08:43;;;;;;;33.35;17.77;;;16.80;54.60;;;;;;5016987;28;20033;-63
2021/09/17 01:11:09;;;;;;;34.13;18.13;;;16.80;54.50;;;;;;5016955;28;20105;-63
2021/09/17 01:13:35;;;;;;;35.00;19.05;;;16.80;54.70;;;;;;5015817;28;20021;-63
2021/09/17 01:16:01;;;;;;;37.30;18.58;;;16.80;54.80;;;;;;5016539;28;20097;-63
2021/09/17 01:18:27;;;;;;;35.63;18.83;;;16.70;54.80;;;;;;5016314;28;20034;-63
2021/09/17 01:21:00;;;;;;;29.60;15.93;;;16.80;54.90;;;;;;5016500;28;20038;-63
2021/09/17 01:23:26;;;;;;;29.42;15.13;;;16.70;55.00;;;;;;5016686;28;20041;-63
2021/09/17 01:25:53;;;;;;;26.50;14.35;;;16.80;55.00;;;;;;5017021;28;20057;-63
2021/09/17 01:28:27;;;;;;;32.20;17.50;;;16.80;55.00;;;;;;5015334;28;20413;-63
2021/09/17 01:30:53;;;;;;;29.80;14.57;;;16.80;55.00;;;;;;5012220;28;20038;-63
2021/09/17 01:33:19;;;;;;;29.17;14.95;;;16.80;55.10;;;;;;5016448;28;20037;-63
2021/09/17 01:35:45;;;;;;;30.58;15.75;;;16.80;55.00;;;;;;5011756;28;20022;-63
2021/09/17 01:38:11;;;;;;;28.13;14.70;;;16.80;55.00;;;;;;5016251;28;20097;-63
2021/09/17 01:40:37;;;;;;;27.25;13.55;;;16.80;55.00;;;;;;5016261;28;20030;-63
2021/09/17 01:43:03;;;;;;;22.08;11.60;;;16.80;55.00;;;;;;5016453;28;20018;-60
2021/09/17 01:45:28;;;;;;;20.60;11.20;;;16.80;55.10;;;;;;5016937;28;20018;-62
2021/09/17 01:47:54;;;;;;;18.38;10.38;;;16.70;55.20;;;;;;5016185;28;20462;-63
2021/09/17 01:50:20;;;;;;;20.08;10.90;;;16.70;55.30;;;;;;5016124;28;20036;-63
2021/09/17 01:52:45;;;;;;;19.55;10.80;;;16.70;55.40;;;;;;5015056;28;20037;-63
2021/09/17 01:55:11;;;;;;;22.67;12.93;;;16.70;55.40;;;;;;5015884;28;20065;-63
2021/09/17 01:57:37;;;;;;;29.73;15.13;;;16.70;55.40;;;;;;5026255;28;20033;-63
2021/09/17 02:00:05;;;;;;;35.38;18.38;;;16.70;55.50;;;;;;5014863;28;20022;-63
2021/09/17 02:02:31;;;;;;;35.08;17.75;;;16.70;55.40;;;;;;5014753;28;20040;-63
2021/09/17 02:04:57;;;;;;;36.30;18.27;;;16.70;55.50;;;;;;5015233;28;20022;-61
2021/09/17 02:07:23;;;;;;;31.58;16.10;;;16.70;55.50;;;;;;5016248;28;20026;-62
2021/09/17 02:09:48;;;;;;;32.55;16.95;;;16.70;55.60;;;;;;5004901;28;20030;-63
2021/09/17 02:12:14;;;;;;;22.40;12.52;;;16.70;55.60;;;;;;4995950;28;20133;-63
2021/09/17 02:14:40;;;;;;;18.02;11.07;;;16.70;55.50;;;;;;4996372;28;20023;-63
2021/09/17 02:17:07;;;;;;;13.77;9.20;;;16.70;55.50;;;;;;4996356;28;20101;-63
2021/09/17 02:19:33;;;;;;;15.68;9.60;;;16.60;55.50;;;;;;4996069;28;20533;-63
2021/09/17 02:21:59;;;;;;;12.60;9.43;;;16.60;55.60;;;;;;5011271;28;20079;-63
2021/09/17 02:24:24;;;;;;;12.57;8.65;;;16.60;55.70;;;;;;5015261;28;20057;-63
2021/09/17 02:26:50;;;;;;;13.07;8.57;;;16.60;55.70;;;;;;5000579;28;20045;-60
2021/09/17 02:29:16;;;;;;;12.13;7.40;;;16.60;55.70;;;;;;5013744;28;20068;-63
2021/09/17 02:31:42;;;;;;;13.23;8.75;;;16.50;55.60;;;;;;5014908;28;20037;-63
2021/09/17 02:34:08;;;;;;;12.80;7.97;;;16.50;55.70;;;;;;5015358;28;20532;-63
2021/09/17 02:36:34;;;;;;;14.63;8.75;;;16.50;55.80;;;;;;5014851;28;20105;-63
2021/09/17 02:38:59;;;;;;;12.60;8.50;;;16.40;55.70;;;;;;5015126;28;20116;-63
2021/09/17 02:41:25;;;;;;;14.05;8.70;;;16.40;55.80;;;;;;5015556;28;20084;-63
2021/09/17 02:43:51;;;;;;;13.18;8.85;;;16.40;55.80;;;;;;5006330;28;20030;-63
2021/09/17 02:46:16;;;;;;;15.10;9.38;;;16.40;56.00;;;;;;4995231;28;20022;-63
2021/09/17 02:48:44;;;;;;;14.90;9.18;;;16.40;56.00;;;;;;4995355;28;20026;-63
2021/09/17 02:51:10;;;;;;;22.90;11.98;;;16.30;56.00;;;;;;5007999;28;20113;-63
2021/09/17 02:53:36;;;;;;;27.10;13.93;;;16.30;56.10;;;;;;5014601;28;20026;-63
2021/09/17 02:56:02;;;;;;;29.92;14.63;;;16.30;56.20;;;;;;5014581;28;20451;-63
2021/09/17 02:58:30;;;;;;;28.92;15.40;;;16.30;56.30;;;;;;5013898;28;20024;-63
2021/09/17 03:00:56;;;;;;;21.67;12.45;;;16.30;56.20;;;;;;5008998;28;20048;-63
2021/09/17 03:03:21;;;;;;;21.55;12.05;;;16.30;56.50;;;;;;5016846;28;20025;-63
2021/09/17 03:05:47;;;;;;;18.75;10.32;;;16.30;56.50;;;;;;5014644;28;20032;-63
2021/09/17 03:08:13;;;;;;;16.33;8.68;;;16.30;56.50;;;;;;5014862;28;20110;-63
2021/09/17 03:10:39;;;;;;;12.93;8.73;;;16.30;56.40;;;;;;5014791;28;20075;-63
2021/09/17 03:13:05;;;;;;;15.80;8.15;;;16.30;56.50;;;;;;5014574;28;20100;-63
2021/09/17 03:15:30;;;;;;;13.05;8.00;;;16.30;56.60;;;;;;5008167;28;20390;-63
2021/09/17 03:17:56;;;;;;;12.95;8.25;;;16.30;56.60;;;;;;4997258;28;20463;-63
2021/09/17 03:20:22;;;;;;;12.50;7.82;;;16.30;56.60;;;;;;5014805;28;20394;-63
2021/09/17 03:22:48;;;;;;;13.57;8.55;;;16.30;56.60;;;;;;5014583;28;20508;-63
2021/09/17 03:25:14;;;;;;;14.25;8.10;;;16.30;56.70;;;;;;5013173;28;20027;-63
2021/09/17 03:27:40;;;;;;;13.32;7.20;;;16.30;56.70;;;;;;5015161;28;20033;-63
2021/09/17 03:30:06;;;;;;;10.52;7.35;;;16.30;56.60;;;;;;5014367;28;20026;-63
2021/09/17 03:32:32;;;;;;;12.05;7.30;;;16.30;56.60;;;;;;5014145;28;20037;-63
2021/09/17 03:34:58;;;;;;;12.90;8.20;;;16.30;56.60;;;;;;5012956;28;20489;-63
2021/09/17 03:37:24;;;;;;;14.98;8.70;;;16.30;56.80;;;;;;4994546;28;20031;-63
2021/09/17 03:39:49;;;;;;;13.73;9.10;;;16.30;56.80;;;;;;4994947;28;20026;-63
2021/09/17 03:42:15;;;;;;;13.73;8.52;;;16.30;56.80;;;;;;4994561;28;20030;-63
2021/09/17 03:44:40;;;;;;;13.75;9.43;;;16.30;57.00;;;;;;4996104;28;20031;-63
2021/09/17 03:47:06;;;;;;;15.68;9.48;;;16.30;56.90;;;;;;5014400;28;20364;-63
2021/09/17 03:49:32;;;;;;;15.80;10.45;;;16.30;57.10;;;;;;5006984;28;20035;-63
2021/09/17 03:51:58;;;;;;;14.95;10.23;;;16.30;57.00;;;;;;4994592;28;20030;-63
2021/09/17 03:54:27;;;;;;;16.92;10.05;;;16.40;57.10;;;;;;5000598;28;20145;-63
2021/09/17 03:56:58;;;;;;;15.48;9.50;;;16.40;57.10;;;;;;5007718;28;20022;-63
2021/09/17 03:59:24;;;;;;;15.75;9.82;;;16.40;57.10;;;;;;5014202;28;20022;-63
2021/09/17 04:01:50;;;;;;;14.50;9.57;;;16.40;57.00;;;;;;5000780;28;20521;-63
2021/09/17 04:04:15;;;;;;;14.07;9.45;;;16.40;57.00;;;;;;4994903;28;20031;-63
2021/09/17 04:06:43;;;;;;;13.90;8.70;;;16.40;57.10;;;;;;5003573;28;20104;-63
2021/09/17 04:09:15;;;;;;;11.40;8.25;;;16.40;57.10;;;;;;5008770;28;20034;-63
2021/09/17 04:11:40;;;;;;;13.88;7.93;;;16.40;57.10;;;;;;5023078;28;20116;-63
2021/09/17 04:14:06;;;;;;;14.88;8.63;;;16.40;57.00;;;;;;5016670;28;20498;-63
2021/09/17 04:16:31;;;;;;;16.48;9.32;;;16.40;56.90;;;;;;5018251;28;20471;-63
2021/09/17 04:18:57;;;;;;;28.52;13.25;;;16.40;56.90;;;;;;5018244;28;20025;-63
2021/09/17 04:21:23;;;;;;;60.42;22.65;;;16.40;56.80;;;;;;5014546;28;20030;-63
2021/09/17 04:23:48;;;;;;;75.53;28.90;;;16.40;56.90;;;;;;5017860;28;20058;-63
2021/09/17 04:26:14;;;;;;;93.75;34.22;;;16.40;56.80;;;;;;5018105;28;20105;-63
2021/09/17 04:28:39;;;;;;;95.32;38.25;;;16.40;56.70;;;;;;5017677;28;20455;-63
2021/09/17 04:31:05;;;;;;;99.85;40.10;;;16.50;56.90;;;;;;5017572;28;20500;-63
2021/09/17 04:33:31;;;;;;;97.75;37.35;;;16.50;56.70;;;;;;5017987;28;20501;-63
2021/09/17 04:35:56;;;;;;;68.07;29.70;;;16.50;56.70;;;;;;5013539;28;20482;-63
2021/09/17 04:38:24;;;;;;;68.85;28.33;;;16.60;56.60;;;;;;4998060;28;20394;-63
2021/09/17 04:40:49;;;;;;;54.00;24.08;;;16.60;56.70;;;;;;4998349;28;20438;-63
2021/09/17 04:43:15;;;;;;;43.25;18.73;;;16.60;56.60;;;;;;4998098;28;20118;-63
2021/09/17 04:45:41;;;;;;;31.85;15.55;;;16.70;56.60;;;;;;4998628;28;20509;-63
2021/09/17 04:48:15;;;;;;;27.23;13.82;;;16.70;56.60;;;;;;5011381;28;20037;-63
2021/09/17 04:50:42;;;;;;;24.10;12.07;;;16.80;56.50;;;;;;5015298;28;20030;-63
2021/09/17 04:53:09;;;;;;;27.27;12.52;;;16.80;56.50;;;;;;5016226;28;20034;-63
2021/09/17 04:55:34;;;;;;;31.17;14.75;;;16.80;56.50;;;;;;5016747;28;20018;-63
2021/09/17 04:58:08;;;;;;;36.10;14.65;;;16.90;56.40;;;;;;5016456;28;20022;-63
2021/09/17 05:00:35;;;;;;;32.42;14.80;;;16.90;56.30;;;;;;5020129;28;20069;-63
2021/09/17 05:03:01;;;;;;;32.72;15.25;;;17.00;56.30;;;;;;5036737;28;20044;-63
2021/09/17 05:05:27;;;;;;;36.65;15.25;;;17.00;56.20;;;;;;5031449;28;20022;-63
2021/09/17 05:07:53;;;;;;;32.92;15.50;;;17.10;56.20;;;;;;5016477;28;20084;-63
2021/09/17 05:10:20;;;;;;;35.88;17.05;;;17.10;56.10;;;;;;5002612;28;20076;-63
2021/09/17 05:12:46;;;;;;;36.88;16.45;;;17.20;56.00;;;;;;4996646;28;20506;-63
2021/09/17 05:15:11;;;;;;;30.95;14.40;;;17.20;55.90;;;;;;5008976;28;20097;-63
2021/09/17 05:17:37;;;;;;;28.58;14.45;;;17.30;55.90;;;;;;5014697;28;20501;-63
2021/09/17 05:20:04;;;;;;;26.73;11.70;;;17.30;55.80;;;;;;5015664;28;20445;-63
2021/09/17 05:22:30;;;;;;;25.27;12.98;;;17.30;55.70;;;;;;5015707;28;20061;-63
2021/09/17 05:24:56;;;;;;;26.38;12.52;;;17.40;55.80;;;;;;5014746;28;20058;-63
2021/09/17 05:27:22;;;;;;;25.67;12.63;;;17.40;55.70;;;;;;5010154;28;20038;-63
2021/09/17 05:29:48;;;;;;;27.48;12.95;;;17.50;55.70;;;;;;5016734;28;20021;-63
2021/09/17 05:32:14;;;;;;;25.98;12.00;;;17.50;55.60;;;;;;5018350;28;20499;-63
2021/09/17 05:34:39;;;;;;;25.50;12.60;;;17.60;55.70;;;;;;5015765;28;20061;-63
2021/09/17 05:37:05;;;;;;;25.90;12.80;;;17.70;55.60;;;;;;5007455;28;20045;-63
2021/09/17 05:39:32;;;;;;;28.23;12.95;;;17.70;55.60;;;;;;5012338;28;20033;-63
2021/09/17 05:41:57;;;;;;;26.75;11.90;;;17.70;55.50;;;;;;5012838;28;20029;-63
2021/09/17 05:44:23;;;;;;;26.67;13.30;;;17.80;55.40;;;;;;5017864;28;20584;-63
2021/09/17 05:46:49;;;;;;;28.63;13.55;;;17.90;55.60;;;;;;5000831;28;20034;-63
2021/09/17 05:49:14;;;;;;;24.08;12.15;;;17.90;55.30;;;;;;5005715;28;20430;-63
2021/09/17 05:51:40;;;;;;;24.02;12.23;;;18.00;55.40;;;;;;5010621;28;20029;-63
2021/09/17 05:54:06;;;;;;;27.55;12.75;;;18.10;55.20;;;;;;5010765;28;20021;-63
2021/09/17 05:56:33;;;;;;;35.67;12.23;;;18.20;55.30;;;;;;5007922;28;20112;-63
2021/09/17 05:58:59;;;;;;;27.17;12.20;;;18.30;55.90;;;;;;5013803;28;20030;-63
2021/09/17 06:01:24;;;;;;;27.65;12.68;;;18.50;55.10;;;;;;5011873;28;20029;-63
2021/09/17 06:03:50;;;;;;;28.70;12.32;;;18.70;54.90;;;;;;5011223;28;20105;-59
2021/09/17 06:06:18;;;;;;;28.50;12.27;;;19.00;54.50;;;;;;5012210;28;20429;-60
2021/09/17 06:08:44;;;;;;;31.60;14.77;;;19.20;54.00;;;;;;5010365;28;20545;-60
2021/09/17 06:11:10;;;;;;;32.17;13.25;;;19.50;53.60;;;;;;5005230;28;20037;-60
2021/09/17 06:13:35;;;;;;;27.30;12.82;;;19.60;53.30;;;;;;5008715;28;20037;-60
2021/09/17 06:16:01;;;;;;;25.23;13.55;;;19.70;53.30;;;;;;5004190;28;20650;-60
2021/09/17 06:18:27;;;;;;;24.83;11.85;;;19.70;53.20;;;;;;5006644;28;20036;-60
2021/09/17 06:20:53;;;;;;;22.52;10.52;;;19.80;53.20;;;;;;5004176;28;20027;-62
2021/09/17 06:23:18;;;;;;;20.35;9.93;;;19.80;53.20;;;;;;5010031;28;20057;-62
2021/09/17 06:25:45;;;;;;;19.08;9.50;;;19.80;53.20;;;;;;5019072;28;20111;-63
2021/09/17 06:28:11;;;;;;;13.60;7.43;;;19.80;53.40;;;;;;5021946;28;20029;-62
2021/09/17 06:30:37;;;;;;;13.75;7.03;;;19.80;53.20;;;;;;5013297;28;20037;-63
2021/09/17 06:33:02;;;;;;;10.00;6.10;;;19.80;53.10;;;;;;5009395;28;20484;-62
2021/09/17 06:35:28;;;;;;;8.15;5.32;;;19.90;53.20;;;;;;5012375;28;20099;-63
2021/09/17 06:37:55;;;;;;;8.95;5.07;;;19.90;53.10;;;;;;5016110;28;20045;-60
2021/09/17 06:40:23;;;;;;;5.82;4.30;;;19.90;53.00;;;;;;5021977;28;20025;-61
2021/09/17 06:42:49;;;;;;;7.43;4.43;;;20.00;53.00;;;;;;5016327;28;20021;-60
2021/09/17 06:45:16;;;;;;;7.13;3.72;;;20.00;52.90;;;;;;5020566;28;20512;-61
2021/09/17 06:47:45;;;;;;;5.78;4.00;;;20.10;52.90;;;;;;5008381;28;20053;-61
2021/09/17 06:50:11;;;;;;;8.82;3.80;;;20.20;52.80;;;;;;5002597;28;20820;-59
2021/09/17 06:52:37;;;;;;;8.73;3.88;;;20.20;52.70;;;;;;5009760;28;20044;-59
2021/09/17 06:55:03;;;;;;;7.60;4.15;;;20.40;52.50;;;;;;5009626;28;20363;-59
2021/09/17 06:57:43;;;;;;;9.27;3.85;;;20.40;52.40;;;;;;5008079;28;20033;-60
2021/09/17 07:00:09;;;;;;;7.15;4.15;;;20.50;52.30;;;;;;5003840;28;20079;-59
2021/09/17 07:02:35;;;;;;;9.15;5.15;;;20.60;52.30;;;;;;5005471;28;20029;-60
2021/09/17 07:05:00;;;;;;;12.55;6.95;;;20.60;52.30;;;;;;5006044;28;20133;-59
2021/09/17 07:07:26;;;;;;;17.48;7.50;;;20.70;52.10;;;;;;5008337;28;20482;-58
2021/09/17 07:09:53;;;;;;;19.85;10.60;;;20.80;52.30;;;;;;5009714;28;20029;-59
2021/09/17 07:12:18;;;;;;;19.05;9.18;;;20.80;52.10;;;;;;5004984;28;20025;-61
2021/09/17 07:14:44;;;;;;;20.63;9.95;;;20.90;51.90;;;;;;5000835;28;20505;-61
2021/09/17 07:17:10;;;;;;;24.02;12.95;;;21.00;51.90;;;;;;5010306;28;20026;-61
2021/09/17 07:19:35;;;;;;;22.08;10.90;;;21.10;51.90;;;;;;5011083;28;20056;-61
2021/09/17 07:22:05;;;;;;;26.05;12.45;;;21.10;51.80;;;;;;5005911;28;20038;-61
2021/09/17 07:24:31;;;;;;;29.77;12.10;;;21.20;51.70;;;;;;5004040;28;20096;-61
2021/09/17 07:26:56;;;;;;;26.60;12.45;;;21.20;51.30;;;;;;5004526;28;20029;-61
2021/09/17 07:29:22;;;;;;;21.50;10.32;;;21.30;51.30;;;;;;5003319;28;20038;-59
2021/09/17 07:31:48;;;;;;;14.32;7.72;;;21.30;51.30;;;;;;5007759;28;20038;-62
2021/09/17 07:34:13;;;;;;;18.95;7.63;;;21.40;51.20;;;;;;5007409;28;20025;-62
2021/09/17 07:36:39;;;;;;;15.27;7.75;;;21.40;51.10;;;;;;4996586;28;20041;-63
2021/09/17 07:39:05;;;;;;;15.27;7.20;;;21.50;51.20;;;;;;5006712;28;20108;-63
2021/09/17 07:41:30;;;;;;;22.50;8.70;;;21.60;51.30;;;;;;5009297;28;20121;-62
2021/09/17 07:43:56;;;;;;;23.55;9.40;;;21.60;51.10;;;;;;5009951;28;20045;-60
2021/09/17 07:46:22;;;;;;;23.35;10.32;;;21.70;51.00;;;;;;5015445;28;20029;-61
2021/09/17 07:48:47;;;;;;;27.02;10.90;;;21.70;50.90;;;;;;5012409;28;20033;-60
2021/09/17 07:51:13;;;;;;;21.75;8.10;;;21.80;50.60;;;;;;5006795;28;20038;-60
2021/09/17 07:53:38;;;;;;;17.33;6.88;;;21.80;50.50;;;;;;5008191;28;20032;-60
2021/09/17 07:56:04;;;;;;;10.80;5.75;;;21.90;50.60;;;;;;5003285;28;20022;-60
2021/09/17 07:58:30;;;;;;;9.73;5.95;;;22.00;50.70;;;;;;5006218;28;20382;-60
2021/09/17 08:00:55;;;;;;;13.95;6.03;;;22.00;50.50;;;;;;5003581;28;20040;-60
2021/09/17 08:03:23;;;;;;;12.75;5.30;;;22.00;50.10;;;;;;5002235;28;20034;-62
2021/09/17 08:05:49;;;;;;;8.68;4.90;;;22.10;50.40;;;;;;5000947;28;20030;-62
2021/09/17 08:08:15;;;;;;;7.13;4.28;;;22.20;50.10;;;;;;5004089;28;20048;-60
2021/09/17 08:10:40;;;;;;;8.20;4.47;;;22.20;49.90;;;;;;5002387;28;20029;-60
2021/09/17 08:13:06;;;;;;;8.93;4.68;;;22.30;49.90;;;;;;4997398;28;20731;-60
2021/09/17 08:15:32;;;;;;;8.45;4.50;;;22.30;49.80;;;;;;5006929;28;20026;-60
2021/09/17 08:17:57;;;;;;;6.90;4.10;;;22.40;49.90;;;;;;4999884;28;20061;-60
2021/09/17 08:20:23;;;;;;;10.57;4.13;;;22.50;49.90;;;;;;5005379;28;20065;-60
2021/09/17 08:22:49;;;;;;;7.68;4.72;;;22.50;49.60;;;;;;5004603;28;20045;-60
2021/09/17 08:25:14;;;;;;;6.20;4.00;;;22.50;49.50;;;;;;5002268;28;20096;-60
2021/09/17 08:27:41;;;;;;;7.82;4.40;;;22.60;49.30;;;;;;5012085;28;20509;-60
2021/09/17 08:30:07;;;;;;;8.35;3.78;;;22.60;49.40;;;;;;5007924;28;20069;-60
2021/09/17 08:32:33;;;;;;;7.05;4.15;;;22.70;49.40;;;;;;5002150;28;20030;-60
2021/09/17 08:34:59;;;;;;;11.93;5.07;;;22.70;49.10;;;;;;5002801;28;20436;-60
2021/09/17 08:37:24;;;;;;;7.97;4.93;;;22.80;49.10;;;;;;5004070;28;20073;-60
2021/09/17 08:39:50;;;;;;;8.20;4.10;;;22.90;49.10;;;;;;5010546;28;20026;-60
2021/09/17 08:42:16;;;;;;;8.52;3.95;;;22.90;49.00;;;;;;5009057;28;20037;-60
2021/09/17 08:44:42;;;;;;;8.60;4.18;;;23.00;49.10;;;;;;5007828;28;20126;-60
2021/09/17 08:47:07;;;;;;;13.88;3.95;;;23.00;48.80;;;;;;5005654;28;20057;-60
2021/09/17 08:49:38;;;;;;;5.65;3.60;;;23.10;48.90;;;;;;5005941;28;20037;-60
2021/09/17 08:52:04;;;;;;;;;;;23.10;48.80;;;;;;5005369;28;20044;-60
2021/09/17 08:54:30;;;;;;;5.35;3.35;;;23.10;49.10;;;;;;5004133;28;19917;-60
2021/09/17 08:56:56;;;;;;;5.53;3.25;;;23.10;49.10;;;;;;5005989;28;20053;-60
2021/09/17 08:59:22;;;;;;;7.22;3.97;;;23.10;49.20;;;;;;5002371;28;20485;-62
2021/09/17 09:01:47;;;;;;;6.70;3.63;;;23.20;49.40;;;;;;5012755;28;20034;-60
2021/09/17 09:04:14;;;;;;;6.75;3.78;;;23.20;49.30;;;;;;5012838;28;20084;-60
2021/09/17 09:06:47;;;;;;;6.43;3.92;;;23.30;49.40;;;;;;5004612;28;20049;-60
2021/09/17 09:09:18;;;;;;;5.68;3.72;;;23.30;49.40;;;;;;5010991;28;20042;-60
2021/09/17 09:11:47;;;;;;;;;;;23.40;49.30;;;;;;5010181;28;20136;-60
2021/09/17 09:14:14;;;;;;;9.43;3.72;;;23.40;49.40;;;;;;5011060;28;20012;-59
2021/09/17 09:16:44;;;;;;;9.05;3.55;;;23.40;49.40;;;;;;5006416;28;20502;-60
2021/09/17 09:19:23;;;;;;;6.70;4.55;;;23.50;49.50;;;;;;4993497;28;20113;-60
2021/09/17 09:22:10;;;;;;;9.30;4.40;;;23.50;49.30;;;;;;5006505;28;20112;-60
2021/09/17 09:24:42;;;;;;;9.48;4.15;;;23.60;49.50;;;;;;5008902;28;20096;-60
2021/09/17 09:27:12;;;;;;;6.90;3.85;;;23.60;49.40;;;;;;5011760;28;20057;-60
2021/09/17 09:29:39;;;;;;;8.18;4.00;;;23.60;49.30;;;;;;5005361;28;20033;-60
2021/09/17 09:32:05;;;;;;;7.78;4.38;;;23.60;49.30;;;;;;5005732;28;20037;-60
2021/09/17 09:34:55;;;;;;;8.70;4.32;;;23.70;49.50;;;;;;5008936;28;20048;-60
2021/09/17 09:37:24;;;;;;;7.22;4.70;;;23.70;49.30;;;;;;5004213;28;20038;-60
2021/09/17 09:40:04;;;;;;;6.68;4.05;;;23.80;49.50;;;;;;4996139;28;20059;-60
2021/09/17 09:42:40;;;;;;;9.68;4.47;;;23.90;49.60;;;;;;5002644;28;20037;-60
2021/09/17 09:45:21;;;;;;;5.60;3.88;;;23.90;49.30;;;;;;4999548;28;20029;-60
2021/09/17 09:47:52;;;;;;;5.25;3.85;;;24.00;49.40;;;;;;5002312;28;20053;-60
2021/09/17 09:50:29;;;;;;;8.98;5.07;;;24.10;49.40;;;;;;5001247;28;20410;-60
2021/09/17 09:52:59;;;;;;;9.55;5.65;;;24.10;49.40;;;;;;5009238;28;20453;-60
2021/09/17 09:55:25;;;;;;;;;;;24.20;49.50;;;;;;5004848;28;20052;-60
2021/09/17 09:57:53;;;;;;;8.07;4.43;;;24.20;49.60;;;;;;5002466;28;20306;-62
2021/09/17 10:00:19;;;;;;;10.55;5.18;;;24.20;49.60;;;;;;5005968;28;20026;-61
2021/09/17 10:02:45;;;;;;;9.68;5.13;;;24.20;49.70;;;;;;4998418;28;20092;-61
2021/09/17 10:05:13;;;;;;;9.02;5.20;;;24.20;49.60;;;;;;5009808;28;20485;-61
2021/09/17 10:07:39;;;;;;;10.30;5.40;;;24.20;50.20;;;;;;4999114;28;20033;-61
2021/09/17 10:10:10;;;;;;;9.30;5.60;;;24.20;49.60;;;;;;5005493;28;20033;-61
2021/09/17 10:12:37;;;;;;;10.48;4.90;;;24.20;49.70;;;;;;5004805;28;20405;-61
2021/09/17 10:15:03;;;;;;;8.95;4.68;;;24.20;49.80;;;;;;5002416;28;20922;-61
2021/09/17 10:17:31;;;;;;;9.45;4.10;;;24.20;49.80;;;;;;5001006;28;20026;-61
2021/09/17 10:19:59;;;;;;;8.40;4.30;;;24.20;49.80;;;;;;5006423;28;20030;-61
2021/09/17 10:22:32;;;;;;;9.68;4.88;;;24.20;50.00;;;;;;5017582;28;20807;-61
2021/09/17 10:25:17;;;;;;;7.05;4.47;;;24.20;49.90;;;;;;5011253;28;20078;-61
2021/09/17 10:28:11;;;;;;;5.45;4.15;;;24.20;50.00;;;;;;5011176;28;20056;-61
2021/09/17 10:30:40;;;;;;;7.00;3.72;;;24.20;49.90;;;;;;5005533;28;20494;-61
2021/09/17 10:33:25;;;;;;;6.28;4.00;;;24.30;50.00;;;;;;5013175;28;20524;-61
2021/09/17 10:35:52;;;;;;;6.68;3.78;;;24.40;49.90;;;;;;5010270;28;20402;-62
2021/09/17 10:38:19;;;;;;;5.55;3.65;;;24.40;49.80;;;;;;5007529;28;20053;-61
2021/09/17 10:41:05;;;;;;;8.85;4.53;;;24.50;49.90;;;;;;5014052;28;20098;-61
2021/09/17 10:43:44;;;;;;;10.10;5.32;;;24.60;49.70;;;;;;5006879;28;20655;-61
2021/09/17 10:46:32;;;;;;;10.13;4.65;;;24.60;49.60;;;;;;5012795;28;20049;-61
2021/09/17 10:48:58;;;;;;;7.75;4.50;;;24.70;49.70;;;;;;5012010;28;20065;-61
2021/09/17 10:51:36;;;;;;;6.03;4.15;;;24.70;49.60;;;;;;5007574;28;20370;-62
2021/09/17 10:54:04;;;;;;;12.65;6.13;;;24.70;49.60;;;;;;5011202;28;20054;-63
2021/09/17 10:56:50;;;;;;;9.77;5.22;;;24.80;49.60;;;;;;5013278;28;20061;-62
2021/09/17 10:59:21;;;;;;;10.43;5.13;;;24.80;49.50;;;;;;5006198;28;20490;-62
2021/09/17 11:01:49;;;;;;;7.90;4.43;;;24.80;49.50;;;;;;5002948;28;20109;-63
2021/09/17 11:04:27;;;;;;;10.40;4.28;;;24.90;49.40;;;;;;5007526;28;20026;-61
2021/09/17 11:06:55;;;;;;;7.00;4.82;;;24.90;49.30;;;;;;5008939;28;20526;-61
2021/09/17 11:09:41;;;;;;;5.47;4.18;;;24.90;49.30;;;;;;5005590;28;20127;-62
2021/09/17 11:12:21;;;;;;;5.55;3.70;;;24.90;49.10;;;;;;5007243;28;20363;-62
2021/09/17 11:15:11;;;;;;;8.43;4.30;;;25.00;49.30;;;;;;5003345;28;20034;-62
2021/09/17 11:17:44;;;;;;;6.23;3.93;;;25.00;49.30;;;;;;5001713;28;20060;-62
2021/09/17 11:20:15;;;;;;;6.85;3.60;;;25.00;49.20;;;;;;5003987;28;20426;-62
2021/09/17 11:23:00;;;;;;;7.50;4.10;;;25.00;49.00;;;;;;5006418;28;20510;-62
2021/09/17 11:25:33;;;;;;;5.20;3.67;;;25.10;48.90;;;;;;5002450;28;20375;-62
2021/09/17 11:27:59;;;;;;;7.15;3.85;;;25.00;48.80;;;;;;5004100;28;20037;-61
2021/09/17 11:30:27;;;;;;;6.60;3.83;;;25.10;48.80;;;;;;4997116;28;20037;-61
2021/09/17 11:32:54;;;;;;;8.07;3.72;;;25.10;48.80;;;;;;4999706;28;20063;-60
2021/09/17 11:35:20;;;;;;;4.78;3.80;;;25.20;48.90;;;;;;5007430;28;20552;-62
2021/09/17 11:37:56;;;;;;;9.55;4.05;;;25.20;48.90;;;;;;5006679;28;20022;-63
2021/09/17 11:40:26;;;;;;;9.10;4.10;;;25.30;48.80;;;;;;5008201;28;20631;-61
2021/09/17 11:42:52;;;;;;;6.28;4.30;;;25.30;48.80;;;;;;5008518;28;20036;-61
2021/09/17 11:45:23;;;;;;;9.20;4.35;;;25.40;48.80;;;;;;5007587;28;20047;-61
2021/09/17 11:47:51;;;;;;;9.75;4.20;;;25.40;48.70;;;;;;5007223;28;20132;-61
2021/09/17 11:50:18;;;;;;;6.90;3.60;;;25.50;48.60;;;;;;5005703;28;20044;-62
2021/09/17 11:52:51;;;;;;;6.43;3.72;;;25.60;48.60;;;;;;5006052;28;20072;-63
2021/09/17 11:55:25;;;;;;;6.82;4.05;;;25.60;48.50;;;;;;5005933;28;20618;-62
2021/09/17 11:57:54;;;;;;;10.80;4.30;;;25.70;48.40;;;;;;5004145;28;20492;-62
2021/09/17 12:00:25;;;;;;;8.02;3.67;;;25.70;48.30;;;;;;5002452;28;20030;-62
2021/09/17 12:03:02;;;;;;;8.20;3.83;;;25.70;48.20;;;;;;5000701;28;20045;-62
2021/09/17 12:05:29;;;;;;;6.38;3.70;;;25.70;48.20;;;;;;5000862;28;20045;-61
2021/09/17 12:07:56;;;;;;;7.88;3.58;;;25.80;48.20;;;;;;4999056;28;20069;-61
2021/09/17 12:10:30;;;;;;;4.80;3.90;;;25.80;48.20;;;;;;5000480;28;20037;-62
2021/09/17 12:13:04;;;;;;;5.75;3.92;;;25.80;48.10;;;;;;4996663;28;20091;-62
2021/09/17 12:15:33;;;;;;;9.43;4.22;;;25.80;48.20;;;;;;4989636;28;20442;-63
2021/09/17 12:18:04;;;;;;;5.82;4.13;;;25.70;48.00;;;;;;5001641;28;20568;-61
2021/09/17 12:20:47;;;;;;;5.75;3.95;;;25.60;47.90;;;;;;4993206;28;20079;-61
2021/09/17 12:23:36;;;;;;;27.40;5.00;;;25.60;48.10;;;;;;4993682;28;20054;-61
2021/09/17 12:26:11;;;;;;;8.15;3.72;;;25.50;48.20;;;;;;4993280;28;20030;-62
2021/09/17 12:28:37;;;;;;;15.88;4.80;;;25.40;48.10;;;;;;4991725;28;20026;-62
2021/09/17 12:31:04;;;;;;;4.30;3.50;;;25.40;48.20;;;;;;4988441;28;20030;-62
2021/09/17 12:33:33;;;;;;;6.88;3.88;;;25.30;48.10;;;;;;4995409;28;20485;-61
2021/09/17 12:36:12;;;;;;;5.57;3.50;;;25.30;48.20;;;;;;4995971;28;20029;-62
2021/09/17 12:38:38;;;;;;;7.55;3.75;;;25.20;48.40;;;;;;4998257;28;20125;-62
2021/09/17 12:41:10;;;;;;;5.90;3.70;;;25.20;48.40;;;;;;5000914;28;20433;-61